sensor_id;sensor_type;location;lat;lon;timestamp;temperature;humidity
53711;DHT22;39605;52.704;6.752;2023-04-06T00:01:50;3.10;99.90
53711;DHT22;39605;52.704;6.752;2023-04-06T00:04:16;3.10;99.90
53711;DHT22;39605;52.704;6.752;2023-04-06T00:06:41;3.00;99.90
53711;DHT22;39605;52.704;6.752;2023-04-06T00:09:07;3.00;99.90
53711;DHT22;39605;52.704;6.752;2023-04-06T00:11:33;2.90;99.90
53711;DHT22;39605;52.704;6.752;2023-04-06T00:13:59;2.90;99.90
53711;DHT22;39605;52.704;6.752;2023-04-06T00:16:25;2.90;99.90
53711;DHT22;39605;52.704;6.752;2023-04-06T00:18:51;2.80;99.90
53711;DHT22;39605;52.704;6.752;2023-04-06T00:21:17;2.80;99.90
53711;DHT22;39605;52.704;6.752;2023-04-06T00:23:43;2.80;1.00
53711;DHT22;39605;52.704;6.752;2023-04-06T00:26:09;2.80;1.00
53711;DHT22;39605;52.704;6.752;2023-04-06T00:28:37;2.80;1.00
53711;DHT22;39605;52.704;6.752;2023-04-06T00:31:03;2.70;1.00
53711;DHT22;39605;52.704;6.752;2023-04-06T00:33:29;2.70;99.90
53711;DHT22;39605;52.704;6.752;2023-04-06T00:35:54;2.70;1.00
53711;DHT22;39605;52.704;6.752;2023-04-06T00:38:21;2.70;99.90
53711;DHT22;39605;52.704;6.752;2023-04-06T00:40:46;2.60;99.90
53711;DHT22;39605;52.704;6.752;2023-04-06T00:43:12;2.60;99.90
53711;DHT22;39605;52.704;6.752;2023-04-06T00:45:39;2.60;99.90
53711;DHT22;39605;52.704;6.752;2023-04-06T00:48:06;2.60;99.90
53711;DHT22;39605;52.704;6.752;2023-04-06T00:50:32;2.60;1.00
53711;DHT22;39605;52.704;6.752;2023-04-06T00:53:01;2.60;1.00
53711;DHT22;39605;52.704;6.752;2023-04-06T00:55:28;2.60;1.00
53711;DHT22;39605;52.704;6.752;2023-04-06T00:57:54;2.50;99.90
53711;DHT22;39605;52.704;6.752;2023-04-06T01:00:22;2.50;1.00
53711;DHT22;39605;52.704;6.752;2023-04-06T01:02:48;2.40;1.00
53711;DHT22;39605;52.704;6.752;2023-04-06T01:05:14;2.30;1.00
53711;DHT22;39605;52.704;6.752;2023-04-06T01:07:40;2.30;1.00
53711;DHT22;39605;52.704;6.752;2023-04-06T01:10:06;2.30;1.00
53711;DHT22;39605;52.704;6.752;2023-04-06T01:12:32;2.30;1.00
53711;DHT22;39605;52.704;6.752;2023-04-06T01:14:57;2.20;1.00
53711;DHT22;39605;52.704;6.752;2023-04-06T01:17:23;2.20;1.00
53711;DHT22;39605;52.704;6.752;2023-04-06T01:19:49;2.20;1.00
53711;DHT22;39605;52.704;6.752;2023-04-06T01:22:16;2.20;1.00
53711;DHT22;39605;52.704;6.752;2023-04-06T01:24:42;2.10;1.00
53711;DHT22;39605;52.704;6.752;2023-04-06T01:27:07;2.00;1.00
53711;DHT22;39605;52.704;6.752;2023-04-06T01:29:33;2.00;1.00
53711;DHT22;39605;52.704;6.752;2023-04-06T01:31:59;1.90;1.00
53711;DHT22;39605;52.704;6.752;2023-04-06T01:34:25;1.90;1.00
53711;DHT22;39605;52.704;6.752;2023-04-06T01:36:51;1.90;1.00
53711;DHT22;39605;52.704;6.752;2023-04-06T01:39:17;1.90;1.00
53711;DHT22;39605;52.704;6.752;2023-04-06T01:41:43;1.90;1.00
53711;DHT22;39605;52.704;6.752;2023-04-06T01:44:08;1.90;1.00
53711;DHT22;39605;52.704;6.752;2023-04-06T01:46:34;1.80;1.00
53711;DHT22;39605;52.704;6.752;2023-04-06T01:49:00;1.80;1.00
53711;DHT22;39605;52.704;6.752;2023-04-06T01:51:26;1.80;1.00
53711;DHT22;39605;52.704;6.752;2023-04-06T01:53:52;1.70;1.00
53711;DHT22;39605;52.704;6.752;2023-04-06T01:56:18;1.70;1.00
53711;DHT22;39605;52.704;6.752;2023-04-06T01:58:43;1.70;1.00
53711;DHT22;39605;52.704;6.752;2023-04-06T02:01:09;1.70;1.00
53711;DHT22;39605;52.704;6.752;2023-04-06T02:03:35;1.60;1.00
53711;DHT22;39605;52.704;6.752;2023-04-06T02:06:01;1.60;1.00
53711;DHT22;39605;52.704;6.752;2023-04-06T02:08:27;1.60;1.00
53711;DHT22;39605;52.704;6.752;2023-04-06T02:10:53;1.60;1.00
53711;DHT22;39605;52.704;6.752;2023-04-06T02:13:18;1.60;1.00
53711;DHT22;39605;52.704;6.752;2023-04-06T02:15:44;1.50;1.00
53711;DHT22;39605;52.704;6.752;2023-04-06T02:18:10;1.50;1.00
53711;DHT22;39605;52.704;6.752;2023-04-06T02:20:36;1.50;1.00
53711;DHT22;39605;52.704;6.752;2023-04-06T02:23:01;1.50;1.00
53711;DHT22;39605;52.704;6.752;2023-04-06T02:25:27;1.40;1.00
53711;DHT22;39605;52.704;6.752;2023-04-06T02:27:53;1.40;1.00
53711;DHT22;39605;52.704;6.752;2023-04-06T02:30:19;1.40;1.00
53711;DHT22;39605;52.704;6.752;2023-04-06T02:32:45;1.30;1.00
53711;DHT22;39605;52.704;6.752;2023-04-06T02:35:11;1.30;1.00
53711;DHT22;39605;52.704;6.752;2023-04-06T02:37:36;1.30;1.00
53711;DHT22;39605;52.704;6.752;2023-04-06T02:40:03;1.40;1.00
53711;DHT22;39605;52.704;6.752;2023-04-06T02:42:28;1.40;1.00
53711;DHT22;39605;52.704;6.752;2023-04-06T02:44:54;1.40;1.00
53711;DHT22;39605;52.704;6.752;2023-04-06T02:47:20;1.50;1.00
53711;DHT22;39605;52.704;6.752;2023-04-06T02:49:46;1.50;1.00
53711;DHT22;39605;52.704;6.752;2023-04-06T02:52:11;1.50;1.00
53711;DHT22;39605;52.704;6.752;2023-04-06T02:54:37;1.50;1.00
53711;DHT22;39605;52.704;6.752;2023-04-06T02:57:03;1.40;1.60
53711;DHT22;39605;52.704;6.752;2023-04-06T02:59:29;1.40;4.00
53711;DHT22;39605;52.704;6.752;2023-04-06T03:01:55;1.40;7.90
53711;DHT22;39605;52.704;6.752;2023-04-06T03:04:20;1.30;4.70
53711;DHT22;39605;52.704;6.752;2023-04-06T03:06:48;1.30;2.30
53711;DHT22;39605;52.704;6.752;2023-04-06T03:09:14;1.30;8.60
53711;DHT22;39605;52.704;6.752;2023-04-06T03:11:39;1.30;1.00
53711;DHT22;39605;52.704;6.752;2023-04-06T03:14:05;1.30;1.00
53711;DHT22;39605;52.704;6.752;2023-04-06T03:16:31;1.30;4.80
53711;DHT22;39605;52.704;6.752;2023-04-06T03:18:57;1.20;11.10
53711;DHT22;39605;52.704;6.752;2023-04-06T03:21:22;1.20;1.00
53711;DHT22;39605;52.704;6.752;2023-04-06T03:23:48;1.20;1.00
53711;DHT22;39605;52.704;6.752;2023-04-06T03:26:17;1.10;2.40
53711;DHT22;39605;52.704;6.752;2023-04-06T03:28:43;1.10;1.40
53711;DHT22;39605;52.704;6.752;2023-04-06T03:31:08;1.10;1.30
53711;DHT22;39605;52.704;6.752;2023-04-06T03:33:34;1.00;1.00
53711;DHT22;39605;52.704;6.752;2023-04-06T03:36:00;1.00;4.60
53711;DHT22;39605;52.704;6.752;2023-04-06T03:38:26;1.00;10.10
53711;DHT22;39605;52.704;6.752;2023-04-06T03:40:51;0.90;4.60
53711;DHT22;39605;52.704;6.752;2023-04-06T03:43:17;1.00;12.70
53711;DHT22;39605;52.704;6.752;2023-04-06T03:45:43;0.90;9.20
53711;DHT22;39605;52.704;6.752;2023-04-06T03:48:08;0.90;18.80
53711;DHT22;39605;52.704;6.752;2023-04-06T03:50:34;0.90;11.50
53711;DHT22;39605;52.704;6.752;2023-04-06T03:53:00;0.90;14.00
53711;DHT22;39605;52.704;6.752;2023-04-06T03:55:28;1.00;7.00
53711;DHT22;39605;52.704;6.752;2023-04-06T03:57:54;1.00;14.20
53711;DHT22;39605;52.704;6.752;2023-04-06T04:00:20;1.00;15.30
53711;DHT22;39605;52.704;6.752;2023-04-06T04:02:45;1.00;16.10
53711;DHT22;39605;52.704;6.752;2023-04-06T04:05:11;0.90;1.00
53711;DHT22;39605;52.704;6.752;2023-04-06T04:07:37;1.00;1.00
53711;DHT22;39605;52.704;6.752;2023-04-06T04:10:03;1.00;2.80
53711;DHT22;39605;52.704;6.752;2023-04-06T04:12:29;1.00;5.00
53711;DHT22;39605;52.704;6.752;2023-04-06T04:14:55;1.00;2.80
53711;DHT22;39605;52.704;6.752;2023-04-06T04:17:21;1.00;6.40
53711;DHT22;39605;52.704;6.752;2023-04-06T04:19:47;0.90;14.10
53711;DHT22;39605;52.704;6.752;2023-04-06T04:22:12;1.00;4.40
53711;DHT22;39605;52.704;6.752;2023-04-06T04:24:38;0.80;13.70
53711;DHT22;39605;52.704;6.752;2023-04-06T04:27:04;0.80;13.30
53711;DHT22;39605;52.704;6.752;2023-04-06T04:29:30;0.90;8.60
53711;DHT22;39605;52.704;6.752;2023-04-06T04:31:56;0.90;14.70
53711;DHT22;39605;52.704;6.752;2023-04-06T04:34:22;0.90;9.80
53711;DHT22;39605;52.704;6.752;2023-04-06T04:36:52;0.90;5.80
53711;DHT22;39605;52.704;6.752;2023-04-06T04:39:18;0.90;2.60
53711;DHT22;39605;52.704;6.752;2023-04-06T04:41:43;1.00;13.00
53711;DHT22;39605;52.704;6.752;2023-04-06T04:44:09;1.00;14.60
53711;DHT22;39605;52.704;6.752;2023-04-06T04:46:35;0.90;12.30
53711;DHT22;39605;52.704;6.752;2023-04-06T04:49:01;0.90;1.00
53711;DHT22;39605;52.704;6.752;2023-04-06T04:51:26;0.90;5.30
53711;DHT22;39605;52.704;6.752;2023-04-06T04:53:52;0.90;9.80
53711;DHT22;39605;52.704;6.752;2023-04-06T04:56:18;1.00;1.00
53711;DHT22;39605;52.704;6.752;2023-04-06T04:58:43;1.00;8.30
53711;DHT22;39605;52.704;6.752;2023-04-06T05:01:09;0.90;14.00
53711;DHT22;39605;52.704;6.752;2023-04-06T05:03:36;0.90;14.00
53711;DHT22;39605;52.704;6.752;2023-04-06T05:06:04;0.90;7.10
53711;DHT22;39605;52.704;6.752;2023-04-06T05:08:30;1.00;4.80
53711;DHT22;39605;52.704;6.752;2023-04-06T05:10:56;1.00;4.30
53711;DHT22;39605;52.704;6.752;2023-04-06T05:13:22;1.00;5.10
53711;DHT22;39605;52.704;6.752;2023-04-06T05:15:48;1.10;10.40
53711;DHT22;39605;52.704;6.752;2023-04-06T05:18:14;1.10;12.00
53711;DHT22;39605;52.704;6.752;2023-04-06T05:20:40;1.00;14.10
53711;DHT22;39605;52.704;6.752;2023-04-06T05:23:06;1.00;13.00
53711;DHT22;39605;52.704;6.752;2023-04-06T05:25:32;1.10;4.40
53711;DHT22;39605;52.704;6.752;2023-04-06T05:27:58;1.10;11.60
53711;DHT22;39605;52.704;6.752;2023-04-06T05:30:24;1.10;11.00
53711;DHT22;39605;52.704;6.752;2023-04-06T05:32:50;1.20;3.30
53711;DHT22;39605;52.704;6.752;2023-04-06T05:35:16;1.30;8.40
53711;DHT22;39605;52.704;6.752;2023-04-06T05:37:43;1.40;9.50
53711;DHT22;39605;52.704;6.752;2023-04-06T05:40:09;1.40;7.10
53711;DHT22;39605;52.704;6.752;2023-04-06T05:42:42;1.40;1.20
53711;DHT22;39605;52.704;6.752;2023-04-06T05:45:09;1.50;1.60
53711;DHT22;39605;52.704;6.752;2023-04-06T05:47:36;1.60;5.70
53711;DHT22;39605;52.704;6.752;2023-04-06T05:50:02;1.70;1.00
53711;DHT22;39605;52.704;6.752;2023-04-06T05:52:28;1.70;1.00
53711;DHT22;39605;52.704;6.752;2023-04-06T05:54:54;1.80;1.00
53711;DHT22;39605;52.704;6.752;2023-04-06T05:57:19;1.90;1.00
53711;DHT22;39605;52.704;6.752;2023-04-06T05:59:45;1.90;5.50
53711;DHT22;39605;52.704;6.752;2023-04-06T06:02:11;2.20;1.00
53711;DHT22;39605;52.704;6.752;2023-04-06T06:04:37;2.50;1.00
53711;DHT22;39605;52.704;6.752;2023-04-06T06:07:02;2.70;1.00
53711;DHT22;39605;52.704;6.752;2023-04-06T06:09:29;2.80;1.00
53711;DHT22;39605;52.704;6.752;2023-04-06T06:11:55;2.90;1.00
53711;DHT22;39605;52.704;6.752;2023-04-06T06:14:20;3.00;1.00
53711;DHT22;39605;52.704;6.752;2023-04-06T06:16:47;3.10;1.00
53711;DHT22;39605;52.704;6.752;2023-04-06T06:19:13;3.20;1.00
53711;DHT22;39605;52.704;6.752;2023-04-06T06:21:39;3.20;1.00
53711;DHT22;39605;52.704;6.752;2023-04-06T06:24:05;3.20;1.00
53711;DHT22;39605;52.704;6.752;2023-04-06T06:26:31;3.20;1.00
53711;DHT22;39605;52.704;6.752;2023-04-06T06:28:57;3.20;1.00
53711;DHT22;39605;52.704;6.752;2023-04-06T06:31:22;3.50;1.00
53711;DHT22;39605;52.704;6.752;2023-04-06T06:33:51;3.70;1.00
53711;DHT22;39605;52.704;6.752;2023-04-06T06:36:17;4.00;1.00
53711;DHT22;39605;52.704;6.752;2023-04-06T06:38:44;4.40;1.00
53711;DHT22;39605;52.704;6.752;2023-04-06T06:41:10;4.80;1.00
53711;DHT22;39605;52.704;6.752;2023-04-06T06:43:36;5.10;1.00
53711;DHT22;39605;52.704;6.752;2023-04-06T06:46:02;5.30;99.90
53711;DHT22;39605;52.704;6.752;2023-04-06T06:48:28;5.60;99.90
53711;DHT22;39605;52.704;6.752;2023-04-06T06:50:54;5.90;99.90
53711;DHT22;39605;52.704;6.752;2023-04-06T06:53:20;6.30;99.90
53711;DHT22;39605;52.704;6.752;2023-04-06T06:55:46;6.70;99.90
53711;DHT22;39605;52.704;6.752;2023-04-06T06:58:14;7.20;99.90
53711;DHT22;39605;52.704;6.752;2023-04-06T07:00:40;7.90;77.10
53711;DHT22;39605;52.704;6.752;2023-04-06T07:03:06;8.40;99.90
53711;DHT22;39605;52.704;6.752;2023-04-06T07:05:32;8.50;1.00
53711;DHT22;39605;52.704;6.752;2023-04-06T07:07:58;8.30;2.20
53711;DHT22;39605;52.704;6.752;2023-04-06T07:10:24;8.30;1.00
53711;DHT22;39605;52.704;6.752;2023-04-06T07:12:49;8.60;99.90
53711;DHT22;39605;52.704;6.752;2023-04-06T07:15:16;9.10;99.90
53711;DHT22;39605;52.704;6.752;2023-04-06T07:17:42;9.50;99.90
53711;DHT22;39605;52.704;6.752;2023-04-06T07:20:10;10.00;1.00
53711;DHT22;39605;52.704;6.752;2023-04-06T07:22:37;10.50;99.90
53711;DHT22;39605;52.704;6.752;2023-04-06T07:25:03;10.80;1.00
53711;DHT22;39605;52.704;6.752;2023-04-06T07:27:29;11.20;99.90
53711;DHT22;39605;52.704;6.752;2023-04-06T07:29:55;11.60;98.50
53711;DHT22;39605;52.704;6.752;2023-04-06T07:32:21;11.80;1.00
53711;DHT22;39605;52.704;6.752;2023-04-06T07:34:46;12.40;1.00
53711;DHT22;39605;52.704;6.752;2023-04-06T07:37:12;13.10;1.00
53711;DHT22;39605;52.704;6.752;2023-04-06T07:39:38;13.80;99.90
53711;DHT22;39605;52.704;6.752;2023-04-06T07:42:04;13.40;1.00
53711;DHT22;39605;52.704;6.752;2023-04-06T07:44:30;13.60;1.00
53711;DHT22;39605;52.704;6.752;2023-04-06T07:46:56;13.20;99.90
53711;DHT22;39605;52.704;6.752;2023-04-06T07:49:22;12.80;99.90
53711;DHT22;39605;52.704;6.752;2023-04-06T07:51:48;12.40;99.90
53711;DHT22;39605;52.704;6.752;2023-04-06T07:54:14;12.60;1.00
53711;DHT22;39605;52.704;6.752;2023-04-06T07:56:39;12.70;1.00
53711;DHT22;39605;52.704;6.752;2023-04-06T07:59:05;12.70;1.00
53711;DHT22;39605;52.704;6.752;2023-04-06T08:01:31;12.50;99.90
53711;DHT22;39605;52.704;6.752;2023-04-06T08:03:57;12.20;99.90
53711;DHT22;39605;52.704;6.752;2023-04-06T08:06:23;11.80;1.00
53711;DHT22;39605;52.704;6.752;2023-04-06T08:08:49;11.50;1.00
53711;DHT22;39605;52.704;6.752;2023-04-06T08:11:14;11.20;1.00
53711;DHT22;39605;52.704;6.752;2023-04-06T08:13:40;10.90;1.00
53711;DHT22;39605;52.704;6.752;2023-04-06T08:16:06;10.90;1.00
53711;DHT22;39605;52.704;6.752;2023-04-06T08:18:31;10.80;1.00
53711;DHT22;39605;52.704;6.752;2023-04-06T08:20:57;10.60;1.00
53711;DHT22;39605;52.704;6.752;2023-04-06T08:23:23;10.40;1.00
53711;DHT22;39605;52.704;6.752;2023-04-06T08:25:49;10.30;16.70
53711;DHT22;39605;52.704;6.752;2023-04-06T08:28:15;10.10;21.40
53711;DHT22;39605;52.704;6.752;2023-04-06T08:30:42;10.00;99.90
53711;DHT22;39605;52.704;6.752;2023-04-06T08:33:08;10.10;99.90
53711;DHT22;39605;52.704;6.752;2023-04-06T08:35:34;10.20;99.90
53711;DHT22;39605;52.704;6.752;2023-04-06T08:38:00;10.30;99.90
53711;DHT22;39605;52.704;6.752;2023-04-06T08:40:26;10.40;99.90
53711;DHT22;39605;52.704;6.752;2023-04-06T08:42:55;10.40;99.90
53711;DHT22;39605;52.704;6.752;2023-04-06T08:45:21;10.50;99.90
53711;DHT22;39605;52.704;6.752;2023-04-06T08:47:49;10.50;99.90
53711;DHT22;39605;52.704;6.752;2023-04-06T08:50:16;10.70;99.90
53711;DHT22;39605;52.704;6.752;2023-04-06T08:52:43;10.90;74.90
53711;DHT22;39605;52.704;6.752;2023-04-06T08:55:09;11.00;36.70
53711;DHT22;39605;52.704;6.752;2023-04-06T08:57:36;10.80;13.90
53711;DHT22;39605;52.704;6.752;2023-04-06T09:00:02;10.80;5.00
53711;DHT22;39605;52.704;6.752;2023-04-06T09:02:28;11.00;11.50
53711;DHT22;39605;52.704;6.752;2023-04-06T09:04:54;10.80;1.00
53711;DHT22;39605;52.704;6.752;2023-04-06T09:07:21;10.90;28.70
53711;DHT22;39605;52.704;6.752;2023-04-06T09:09:47;11.00;1.00
53711;DHT22;39605;52.704;6.752;2023-04-06T09:12:24;11.10;1.00
53711;DHT22;39605;52.704;6.752;2023-04-06T09:14:49;11.00;1.00
53711;DHT22;39605;52.704;6.752;2023-04-06T09:17:29;10.90;1.00
53711;DHT22;39605;52.704;6.752;2023-04-06T09:19:55;10.90;1.00
53711;DHT22;39605;52.704;6.752;2023-04-06T09:22:21;11.00;8.30
53711;DHT22;39605;52.704;6.752;2023-04-06T09:24:53;11.10;10.70
53711;DHT22;39605;52.704;6.752;2023-04-06T09:27:33;11.20;1.00
53711;DHT22;39605;52.704;6.752;2023-04-06T09:30:09;11.30;1.00
53711;DHT22;39605;52.704;6.752;2023-04-06T09:32:49;11.50;1.00
53711;DHT22;39605;52.704;6.752;2023-04-06T09:35:16;11.50;1.00
53711;DHT22;39605;52.704;6.752;2023-04-06T09:37:42;11.40;1.00
53711;DHT22;39605;52.704;6.752;2023-04-06T09:40:09;11.40;1.00
53711;DHT22;39605;52.704;6.752;2023-04-06T09:42:36;11.40;1.00
53711;DHT22;39605;52.704;6.752;2023-04-06T09:45:02;11.40;1.00
53711;DHT22;39605;52.704;6.752;2023-04-06T09:47:30;11.60;1.00
53711;DHT22;39605;52.704;6.752;2023-04-06T09:50:00;11.70;1.00
53711;DHT22;39605;52.704;6.752;2023-04-06T09:52:35;11.80;1.00
53711;DHT22;39605;52.704;6.752;2023-04-06T09:55:04;11.90;1.00
53711;DHT22;39605;52.704;6.752;2023-04-06T09:58:15;12.00;1.00
53711;DHT22;39605;52.704;6.752;2023-04-06T10:01:08;12.10;1.00
53711;DHT22;39605;52.704;6.752;2023-04-06T10:03:56;12.20;1.00
53711;DHT22;39605;52.704;6.752;2023-04-06T10:06:26;12.40;1.00
53711;DHT22;39605;52.704;6.752;2023-04-06T10:08:53;12.50;1.00
53711;DHT22;39605;52.704;6.752;2023-04-06T10:11:20;12.50;1.00
53711;DHT22;39605;52.704;6.752;2023-04-06T10:13:47;12.60;1.00
53711;DHT22;39605;52.704;6.752;2023-04-06T10:16:14;12.50;99.90
53711;DHT22;39605;52.704;6.752;2023-04-06T10:18:49;12.60;1.00
53711;DHT22;39605;52.704;6.752;2023-04-06T10:21:20;12.80;1.00
53711;DHT22;39605;52.704;6.752;2023-04-06T10:23:49;13.10;99.90
53711;DHT22;39605;52.704;6.752;2023-04-06T10:26:16;13.20;99.90
53711;DHT22;39605;52.704;6.752;2023-04-06T10:28:43;13.50;99.90
53711;DHT22;39605;52.704;6.752;2023-04-06T10:31:09;13.60;99.90
53711;DHT22;39605;52.704;6.752;2023-04-06T10:33:35;13.60;99.90
53711;DHT22;39605;52.704;6.752;2023-04-06T10:36:14;13.70;99.90
53711;DHT22;39605;52.704;6.752;2023-04-06T10:38:41;13.80;99.90
53711;DHT22;39605;52.704;6.752;2023-04-06T10:41:09;13.90;99.90
53711;DHT22;39605;52.704;6.752;2023-04-06T10:43:36;14.00;99.90
53711;DHT22;39605;52.704;6.752;2023-04-06T10:46:04;13.70;99.90
53711;DHT22;39605;52.704;6.752;2023-04-06T10:48:41;13.90;99.90
53711;DHT22;39605;52.704;6.752;2023-04-06T10:51:15;14.00;99.90
53711;DHT22;39605;52.704;6.752;2023-04-06T10:53:43;13.70;99.90
53711;DHT22;39605;52.704;6.752;2023-04-06T10:56:11;13.70;99.90
53711;DHT22;39605;52.704;6.752;2023-04-06T10:58:37;13.70;99.90
53711;DHT22;39605;52.704;6.752;2023-04-06T11:01:03;13.60;99.90
53711;DHT22;39605;52.704;6.752;2023-04-06T11:03:29;13.60;99.90
53711;DHT22;39605;52.704;6.752;2023-04-06T11:05:55;13.60;99.90
53711;DHT22;39605;52.704;6.752;2023-04-06T11:08:30;13.70;99.90
53711;DHT22;39605;52.704;6.752;2023-04-06T11:11:09;13.50;99.90
53711;DHT22;39605;52.704;6.752;2023-04-06T11:13:39;13.60;99.90
53711;DHT22;39605;52.704;6.752;2023-04-06T11:16:04;13.60;99.90
53711;DHT22;39605;52.704;6.752;2023-04-06T11:18:31;13.70;99.90
53711;DHT22;39605;52.704;6.752;2023-04-06T11:20:57;13.60;99.90
53711;DHT22;39605;52.704;6.752;2023-04-06T11:23:26;13.70;99.90
53711;DHT22;39605;52.704;6.752;2023-04-06T11:25:52;13.60;99.90
53711;DHT22;39605;52.704;6.752;2023-04-06T11:28:19;13.50;99.90
53711;DHT22;39605;52.704;6.752;2023-04-06T11:30:45;13.50;99.90
53711;DHT22;39605;52.704;6.752;2023-04-06T11:33:20;13.50;99.90
53711;DHT22;39605;52.704;6.752;2023-04-06T11:35:46;13.40;99.90
53711;DHT22;39605;52.704;6.752;2023-04-06T11:38:12;13.50;99.90
53711;DHT22;39605;52.704;6.752;2023-04-06T11:40:38;13.60;99.90
53711;DHT22;39605;52.704;6.752;2023-04-06T11:43:04;13.60;97.50
53711;DHT22;39605;52.704;6.752;2023-04-06T11:45:42;13.70;93.40
53711;DHT22;39605;52.704;6.752;2023-04-06T11:48:18;13.60;79.10
53711;DHT22;39605;52.704;6.752;2023-04-06T11:50:46;13.60;82.30
53711;DHT22;39605;52.704;6.752;2023-04-06T11:53:14;13.70;94.80
53711;DHT22;39605;52.704;6.752;2023-04-06T11:55:39;13.70;80.50
53711;DHT22;39605;52.704;6.752;2023-04-06T11:58:06;13.60;66.40
53711;DHT22;39605;52.704;6.752;2023-04-06T12:00:32;13.60;65.90
53711;DHT22;39605;52.704;6.752;2023-04-06T12:03:00;13.70;68.70
53711;DHT22;39605;52.704;6.752;2023-04-06T12:05:26;13.70;63.20
53711;DHT22;39605;52.704;6.752;2023-04-06T12:07:52;13.70;49.00
53711;DHT22;39605;52.704;6.752;2023-04-06T12:10:18;13.60;49.50
53711;DHT22;39605;52.704;6.752;2023-04-06T12:12:43;13.60;32.30
53711;DHT22;39605;52.704;6.752;2023-04-06T12:15:09;13.70;39.10
53711;DHT22;39605;52.704;6.752;2023-04-06T12:17:35;13.80;46.30
53711;DHT22;39605;52.704;6.752;2023-04-06T12:20:02;13.80;34.40
53711;DHT22;39605;52.704;6.752;2023-04-06T12:22:28;14.00;34.70
53711;DHT22;39605;52.704;6.752;2023-04-06T12:24:54;14.10;27.70
53711;DHT22;39605;52.704;6.752;2023-04-06T12:27:19;14.40;31.80
53711;DHT22;39605;52.704;6.752;2023-04-06T12:29:46;14.60;37.50
53711;DHT22;39605;52.704;6.752;2023-04-06T12:32:12;14.50;24.80
53711;DHT22;39605;52.704;6.752;2023-04-06T12:34:38;14.60;18.50
53711;DHT22;39605;52.704;6.752;2023-04-06T12:37:04;14.40;9.40
53711;DHT22;39605;52.704;6.752;2023-04-06T12:39:29;14.30;13.70
53711;DHT22;39605;52.704;6.752;2023-04-06T12:41:55;14.10;8.00
53711;DHT22;39605;52.704;6.752;2023-04-06T12:44:22;14.20;12.10
53711;DHT22;39605;52.704;6.752;2023-04-06T12:46:48;14.20;14.70
53711;DHT22;39605;52.704;6.752;2023-04-06T12:49:14;14.10;15.20
53711;DHT22;39605;52.704;6.752;2023-04-06T12:51:42;14.20;20.10
53711;DHT22;39605;52.704;6.752;2023-04-06T12:54:07;14.30;52.60
53711;DHT22;39605;52.704;6.752;2023-04-06T12:56:33;14.30;37.00
53711;DHT22;39605;52.704;6.752;2023-04-06T12:58:59;14.50;48.40
53711;DHT22;39605;52.704;6.752;2023-04-06T13:01:25;14.60;57.60
53711;DHT22;39605;52.704;6.752;2023-04-06T13:03:53;14.70;61.40
53711;DHT22;39605;52.704;6.752;2023-04-06T13:06:19;14.60;47.70
53711;DHT22;39605;52.704;6.752;2023-04-06T13:08:44;14.50;38.90
53711;DHT22;39605;52.704;6.752;2023-04-06T13:11:12;14.50;45.30
53711;DHT22;39605;52.704;6.752;2023-04-06T13:13:38;14.40;35.30
53711;DHT22;39605;52.704;6.752;2023-04-06T13:16:06;14.40;44.00
53711;DHT22;39605;52.704;6.752;2023-04-06T13:18:32;14.40;50.00
53711;DHT22;39605;52.704;6.752;2023-04-06T13:20:59;14.40;47.90
53711;DHT22;39605;52.704;6.752;2023-04-06T13:23:25;14.20;31.90
53711;DHT22;39605;52.704;6.752;2023-04-06T13:26:03;14.20;48.70
53711;DHT22;39605;52.704;6.752;2023-04-06T13:28:33;14.10;45.90
53711;DHT22;39605;52.704;6.752;2023-04-06T13:30:59;14.10;45.60
53711;DHT22;39605;52.704;6.752;2023-04-06T13:33:26;14.00;43.00
53711;DHT22;39605;52.704;6.752;2023-04-06T13:35:52;14.00;71.90
53711;DHT22;39605;52.704;6.752;2023-04-06T13:38:17;13.90;72.30
53711;DHT22;39605;52.704;6.752;2023-04-06T13:40:43;13.90;74.80
53711;DHT22;39605;52.704;6.752;2023-04-06T13:43:09;13.90;85.80
53711;DHT22;39605;52.704;6.752;2023-04-06T13:45:36;13.80;92.80
53711;DHT22;39605;52.704;6.752;2023-04-06T13:48:02;13.80;98.60
53711;DHT22;39605;52.704;6.752;2023-04-06T13:50:28;13.80;99.90
53711;DHT22;39605;52.704;6.752;2023-04-06T13:52:55;13.70;99.90
53711;DHT22;39605;52.704;6.752;2023-04-06T13:55:21;13.70;99.90
53711;DHT22;39605;52.704;6.752;2023-04-06T13:57:47;13.60;99.90
53711;DHT22;39605;52.704;6.752;2023-04-06T14:00:13;13.60;99.90
53711;DHT22;39605;52.704;6.752;2023-04-06T14:02:40;13.60;99.90
53711;DHT22;39605;52.704;6.752;2023-04-06T14:05:08;13.40;99.90
53711;DHT22;39605;52.704;6.752;2023-04-06T14:07:34;13.40;99.90
53711;DHT22;39605;52.704;6.752;2023-04-06T14:10:02;13.40;99.90
53711;DHT22;39605;52.704;6.752;2023-04-06T14:12:28;13.40;99.90
53711;DHT22;39605;52.704;6.752;2023-04-06T14:14:53;13.20;99.90
53711;DHT22;39605;52.704;6.752;2023-04-06T14:17:24;13.20;99.90
53711;DHT22;39605;52.704;6.752;2023-04-06T14:19:50;13.10;99.90
53711;DHT22;39605;52.704;6.752;2023-04-06T14:22:16;13.10;99.90
53711;DHT22;39605;52.704;6.752;2023-04-06T14:24:43;13.00;99.90
53711;DHT22;39605;52.704;6.752;2023-04-06T14:27:08;12.90;99.90
53711;DHT22;39605;52.704;6.752;2023-04-06T14:29:34;12.80;99.90
53711;DHT22;39605;52.704;6.752;2023-04-06T14:32:00;12.70;99.90
53711;DHT22;39605;52.704;6.752;2023-04-06T14:34:26;12.70;99.90
53711;DHT22;39605;52.704;6.752;2023-04-06T14:36:52;12.60;99.90
53711;DHT22;39605;52.704;6.752;2023-04-06T14:39:18;12.60;99.90
53711;DHT22;39605;52.704;6.752;2023-04-06T14:41:44;12.60;99.90
53711;DHT22;39605;52.704;6.752;2023-04-06T14:44:10;12.60;99.90
53711;DHT22;39605;52.704;6.752;2023-04-06T14:46:37;12.50;99.90
53711;DHT22;39605;52.704;6.752;2023-04-06T14:49:03;12.50;99.90
53711;DHT22;39605;52.704;6.752;2023-04-06T14:51:29;12.50;99.90
53711;DHT22;39605;52.704;6.752;2023-04-06T14:53:55;12.40;99.90
53711;DHT22;39605;52.704;6.752;2023-04-06T14:56:22;12.40;99.90
53711;DHT22;39605;52.704;6.752;2023-04-06T14:58:49;12.30;99.90
53711;DHT22;39605;52.704;6.752;2023-04-06T15:01:20;12.30;99.90
53711;DHT22;39605;52.704;6.752;2023-04-06T15:03:48;12.30;99.90
53711;DHT22;39605;52.704;6.752;2023-04-06T15:06:15;12.20;99.90
53711;DHT22;39605;52.704;6.752;2023-04-06T15:08:44;12.00;99.90
53711;DHT22;39605;52.704;6.752;2023-04-06T15:11:10;12.00;99.90
53711;DHT22;39605;52.704;6.752;2023-04-06T15:13:37;12.00;1.00
53711;DHT22;39605;52.704;6.752;2023-04-06T15:16:03;11.90;10.60
53711;DHT22;39605;52.704;6.752;2023-04-06T15:18:29;11.90;99.90
53711;DHT22;39605;52.704;6.752;2023-04-06T15:20:55;11.90;1.00
53711;DHT22;39605;52.704;6.752;2023-04-06T15:23:21;11.70;99.90
53711;DHT22;39605;52.704;6.752;2023-04-06T15:25:47;11.60;99.90
53711;DHT22;39605;52.704;6.752;2023-04-06T15:28:13;11.50;99.90
53711;DHT22;39605;52.704;6.752;2023-04-06T15:30:39;11.40;99.90
53711;DHT22;39605;52.704;6.752;2023-04-06T15:33:07;11.30;99.90
53711;DHT22;39605;52.704;6.752;2023-04-06T15:35:33;11.30;99.90
53711;DHT22;39605;52.704;6.752;2023-04-06T15:38:05;11.30;99.90
53711;DHT22;39605;52.704;6.752;2023-04-06T15:40:32;11.20;1.00
53711;DHT22;39605;52.704;6.752;2023-04-06T15:42:58;11.20;99.90